createdAt,value
2019-02-07T00:01:58.716Z,9.33
2019-02-07T00:04:25.120Z,9.63
2019-02-07T00:06:54.560Z,9.53
2019-02-07T00:09:20.554Z,9.97
2019-02-07T00:11:47.320Z,8.87
2019-02-07T00:14:13.926Z,9.63
2019-02-07T00:16:40.464Z,9.47
2019-02-07T00:19:06.948Z,9.30
2019-02-07T00:21:33.601Z,9.00
2019-02-07T00:24:00.149Z,9.63
2019-02-07T00:26:26.861Z,9.93
2019-02-07T00:28:53.330Z,9.53
2019-02-07T00:31:19.881Z,9.40
2019-02-07T00:33:46.372Z,9.37
2019-02-07T00:36:13.198Z,9.20
2019-02-07T00:38:39.905Z,8.77
2019-02-07T00:41:06.518Z,9.77
2019-02-07T00:43:33.079Z,9.33
2019-02-07T00:45:59.500Z,9.33
2019-02-07T00:48:26.553Z,10.00
2019-02-07T00:50:53.228Z,9.30
2019-02-07T00:53:19.746Z,9.80
2019-02-07T00:55:46.419Z,8.87
2019-02-07T00:58:12.824Z,9.03
2019-02-07T01:00:39.307Z,8.80
2019-02-07T01:03:06.210Z,9.47
2019-02-07T01:05:32.660Z,8.97
2019-02-07T01:07:59.500Z,8.67
2019-02-07T01:10:29.086Z,8.67
2019-02-07T01:12:55.875Z,9.63
2019-02-07T01:15:24.710Z,8.80
2019-02-07T01:17:51.185Z,8.17
2019-02-07T01:20:18.000Z,8.53
2019-02-07T01:22:45.383Z,8.73
2019-02-07T01:25:19.640Z,8.93
2019-02-07T01:27:46.116Z,8.10
2019-02-07T01:30:24.696Z,8.80
2019-02-07T01:32:51.593Z,8.27
2019-02-07T01:35:18.200Z,8.83
2019-02-07T01:37:44.759Z,8.50
2019-02-07T01:40:14.995Z,8.50
2019-02-07T01:42:41.569Z,8.90
2019-02-07T01:45:13.421Z,8.97
2019-02-07T01:47:40.413Z,9.93
2019-02-07T01:50:14.325Z,9.13
2019-02-07T01:52:41.021Z,8.43
2019-02-07T01:55:08.040Z,8.90
2019-02-07T01:57:34.532Z,8.73
2019-02-07T02:00:01.135Z,8.47
2019-02-07T02:02:27.444Z,8.27
2019-02-07T02:04:54.044Z,8.60
2019-02-07T02:07:20.758Z,8.97
2019-02-07T02:09:47.659Z,8.73
2019-02-07T02:12:14.263Z,8.50
2019-02-07T02:14:41.132Z,8.40
2019-02-07T02:17:07.629Z,8.47
2019-02-07T02:19:34.199Z,8.60
2019-02-07T02:22:00.924Z,8.30
2019-02-07T02:24:27.313Z,8.77
2019-02-07T02:26:53.713Z,8.77
2019-02-07T02:29:20.108Z,8.90
2019-02-07T02:31:46.538Z,8.47
2019-02-07T02:34:13.018Z,9.40
2019-02-07T02:36:39.521Z,9.60
2019-02-07T02:39:07.556Z,9.67
2019-02-07T02:41:34.057Z,9.47
2019-02-07T02:44:00.427Z,9.43
2019-02-07T02:46:27.251Z,9.67
2019-02-07T02:49:13.703Z,9.47
2019-02-07T02:51:40.187Z,10.07
2019-02-07T02:54:08.625Z,10.37
2019-02-07T02:56:35.235Z,9.43
2019-02-07T02:59:01.842Z,9.63
2019-02-07T03:01:32.974Z,9.60
2019-02-07T03:04:01.720Z,9.60
2019-02-07T03:06:30.113Z,10.33
2019-02-07T03:09:15.122Z,10.10
2019-02-07T03:11:46.211Z,9.97
2019-02-07T03:14:20.305Z,9.83
2019-02-07T03:16:57.687Z,10.00
2019-02-07T03:19:42.735Z,9.20
2019-02-07T03:22:17.500Z,11.97
2019-02-07T03:25:04.465Z,9.93
2019-02-07T03:27:44.767Z,9.97
2019-02-07T03:30:19.773Z,10.03
2019-02-07T03:32:50.751Z,9.80
2019-02-07T03:35:19.189Z,9.37
2019-02-07T03:38:03.848Z,9.90
2019-02-07T03:40:40.960Z,9.93
2019-02-07T03:43:12.193Z,9.57
2019-02-07T03:45:46.702Z,10.20
2019-02-07T03:48:21.496Z,10.03
2019-02-07T03:51:06.511Z,10.37
2019-02-07T03:53:47.096Z,10.13
2019-02-07T03:56:27.696Z,9.20
2019-02-07T03:58:55.895Z,9.77
2019-02-07T04:01:41.049Z,9.33
2019-02-07T04:04:21.394Z,9.10
2019-02-07T04:07:06.309Z,8.87
2019-02-07T04:09:51.564Z,15.00
2019-02-07T04:12:22.915Z,9.03
2019-02-07T04:15:00.060Z,8.93
2019-02-07T04:17:28.972Z,9.03
2019-02-07T04:20:06.549Z,9.10
2019-02-07T04:22:34.731Z,8.67
2019-02-07T04:25:06.001Z,9.47
2019-02-07T04:27:40.331Z,9.20
2019-02-07T04:30:16.808Z,8.97
2019-02-07T04:32:57.475Z,9.17
2019-02-07T04:35:41.075Z,9.03
2019-02-07T04:38:26.409Z,9.17
2019-02-07T04:41:00.774Z,8.87
2019-02-07T04:43:47.184Z,9.00
2019-02-07T04:46:26.668Z,8.60
2019-02-07T04:49:03.647Z,8.80
2019-02-07T04:51:37.728Z,8.03
2019-02-07T04:54:12.444Z,9.00
2019-02-07T04:56:49.867Z,8.23
2019-02-07T04:59:20.894Z,8.20
2019-02-07T05:02:01.324Z,8.70
2019-02-07T05:04:46.832Z,7.93
2019-02-07T05:07:15.425Z,9.13
2019-02-07T05:09:43.792Z,9.13
2019-02-07T05:12:12.240Z,9.03
2019-02-07T05:14:43.335Z,8.40
2019-02-07T05:17:14.901Z,9.27
2019-02-07T05:19:43.316Z,9.07
2019-02-07T05:22:11.820Z,8.23
2019-02-07T05:24:40.236Z,9.10
2019-02-07T05:27:25.182Z,8.73
2019-02-07T05:29:53.948Z,10.07
2019-02-07T05:32:31.504Z,9.60
2019-02-07T05:35:18.342Z,9.67
2019-02-07T05:38:02.012Z,9.50
2019-02-07T05:40:30.448Z,9.63
2019-02-07T05:43:10.861Z,9.97
2019-02-07T05:45:42.163Z,10.00
2019-02-07T05:48:22.461Z,10.50
2019-02-07T05:50:56.714Z,9.80
2019-02-07T05:53:25.216Z,10.63
2019-02-07T05:55:59.668Z,10.80
2019-02-07T05:58:46.581Z,9.80
2019-02-07T06:01:26.924Z,10.17
2019-02-07T06:04:01.599Z,9.83
2019-02-07T06:06:48.401Z,10.53
2019-02-07T06:09:17.840Z,9.43
2019-02-07T06:11:58.346Z,10.00
2019-02-07T06:14:26.756Z,9.80
2019-02-07T06:17:12.280Z,11.23
2019-02-07T06:19:57.088Z,9.37
2019-02-07T06:22:34.374Z,10.83
2019-02-07T06:25:03.168Z,9.70
2019-02-07T06:27:49.527Z,10.43
2019-02-07T06:30:26.786Z,10.20
2019-02-07T06:33:00.956Z,10.20
2019-02-07T06:35:32.061Z,10.13
2019-02-07T06:38:17.331Z,11.00
2019-02-07T06:41:03.803Z,10.33
2019-02-07T06:43:38.093Z,10.00
2019-02-07T06:46:25.095Z,10.37
2019-02-07T06:48:53.427Z,9.90
2019-02-07T06:51:22.396Z,10.17
2019-02-07T06:53:50.807Z,10.37
2019-02-07T06:56:34.207Z,9.63
2019-02-07T06:59:14.631Z,10.73
2019-02-07T07:02:00.400Z,11.50
2019-02-07T07:04:45.542Z,10.40
2019-02-07T07:07:13.965Z,10.83
2019-02-07T07:09:57.911Z,9.80
2019-02-07T07:12:29.310Z,11.17
2019-02-07T07:15:03.860Z,10.80
2019-02-07T07:17:44.126Z,10.60
2019-02-07T07:20:31.518Z,11.10
2019-02-07T07:23:11.656Z,11.17
2019-02-07T07:25:42.825Z,10.73
2019-02-07T07:28:14.151Z,11.03
2019-02-07T07:30:48.517Z,11.90
2019-02-07T07:33:33.516Z,11.83
2019-02-07T07:36:05.301Z,11.27
2019-02-07T07:38:42.660Z,11.67
2019-02-07T07:41:10.950Z,11.17
2019-02-07T07:43:56.022Z,11.03
2019-02-07T07:46:30.588Z,11.63
2019-02-07T07:49:10.687Z,11.50
2019-02-07T07:51:51.313Z,10.87
2019-02-07T07:54:34.938Z,11.67
2019-02-07T07:57:15.378Z,11.37
2019-02-07T07:59:52.863Z,11.43
2019-02-07T08:02:33.198Z,11.77
2019-02-07T08:05:01.648Z,11.03
2019-02-07T08:07:38.872Z,11.40
2019-02-07T08:10:11.805Z,12.00
2019-02-07T08:12:40.346Z,10.77
2019-02-07T08:15:19.553Z,10.93
2019-02-07T08:17:50.800Z,10.83
2019-02-07T08:20:28.485Z,11.83
2019-02-07T08:22:59.793Z,11.57
2019-02-07T08:25:37.032Z,11.63
2019-02-07T08:28:14.523Z,11.20
2019-02-07T08:30:54.652Z,11.50
2019-02-07T08:33:23.462Z,11.13
2019-02-07T08:35:52.072Z,10.93
2019-02-07T08:38:20.379Z,11.17
2019-02-07T08:40:51.626Z,11.73
2019-02-07T08:43:26.283Z,11.47
2019-02-07T08:45:54.682Z,10.60
2019-02-07T08:48:39.990Z,10.70
2019-02-07T08:51:08.190Z,10.20
2019-02-07T08:53:39.289Z,9.17
2019-02-07T08:56:10.547Z,10.47
2019-02-07T08:58:51.460Z,10.67
2019-02-07T09:01:19.853Z,10.97
2019-02-07T09:03:57.141Z,10.63
2019-02-07T09:06:25.673Z,10.50
2019-02-07T09:08:59.833Z,10.97
2019-02-07T09:11:28.246Z,10.20
2019-02-07T09:14:02.673Z,10.90
2019-02-07T09:16:46.030Z,10.50
2019-02-07T09:19:24.127Z,9.57
2019-02-07T09:21:55.445Z,9.83
2019-02-07T09:24:23.865Z,9.30
2019-02-07T09:26:55.290Z,8.87
2019-02-07T09:29:40.693Z,8.50
2019-02-07T09:32:15.033Z,8.17
2019-02-07T09:34:49.369Z,8.63
2019-02-07T09:37:23.668Z,8.03
2019-02-07T09:39:58.035Z,8.40
2019-02-07T09:42:26.295Z,7.80
2019-02-07T09:44:54.751Z,7.40
2019-02-07T09:47:23.294Z,7.37
2019-02-07T09:49:57.920Z,7.23
2019-02-07T09:52:35.416Z,6.60
2019-02-07T09:55:06.784Z,6.70
2019-02-07T09:57:35.189Z,6.97
2019-02-07T10:00:20.348Z,6.03
2019-02-07T10:02:48.861Z,6.10
2019-02-07T10:05:17.307Z,5.93
2019-02-07T10:07:54.424Z,5.47
2019-02-07T10:10:25.534Z,4.30
2019-02-07T10:13:10.952Z,4.60
2019-02-07T10:15:48.506Z,4.60
2019-02-07T10:18:19.878Z,4.20
2019-02-07T10:21:00.526Z,4.50
2019-02-07T10:23:45.337Z,4.57
2019-02-07T10:26:25.513Z,4.00
2019-02-07T10:29:11.890Z,4.93
2019-02-07T10:31:57.118Z,4.50
2019-02-07T10:34:31.286Z,4.83
2019-02-07T10:37:08.896Z,4.40
2019-02-07T10:39:37.712Z,4.93
2019-02-07T10:42:22.817Z,4.77
2019-02-07T10:45:00.045Z,4.47
2019-02-07T10:47:40.622Z,4.70
2019-02-07T10:50:30.725Z,4.73
2019-02-07T10:53:02.222Z,4.77
2019-02-07T10:55:36.698Z,4.67
2019-02-07T10:58:25.493Z,3.97
2019-02-07T11:00:59.029Z,4.23
2019-02-07T11:03:36.670Z,4.50
2019-02-07T11:06:14.330Z,4.27
2019-02-07T11:08:59.351Z,4.43
2019-02-07T11:11:28.110Z,4.33
2019-02-07T11:14:02.460Z,5.03
2019-02-07T11:16:36.528Z,4.80
2019-02-07T11:19:22.181Z,4.30
2019-02-07T11:21:50.691Z,4.60
2019-02-07T11:24:31.144Z,4.43
2019-02-07T11:27:08.459Z,5.50
2019-02-07T11:29:36.790Z,4.70
2019-02-07T11:32:17.300Z,4.67
2019-02-07T11:35:00.953Z,4.73
2019-02-07T11:37:32.370Z,5.13
2019-02-07T11:40:17.533Z,4.67
2019-02-07T11:43:02.915Z,5.10
2019-02-07T11:45:33.964Z,4.80
2019-02-07T11:48:08.296Z,5.23
2019-02-07T11:50:54.670Z,4.80
2019-02-07T11:53:38.131Z,4.37
2019-02-07T11:56:15.658Z,5.33
2019-02-07T11:59:02.441Z,5.57
2019-02-07T12:01:45.959Z,4.50
2019-02-07T12:04:14.363Z,4.50
2019-02-07T12:06:42.963Z,4.30
2019-02-07T12:09:11.467Z,4.67
2019-02-07T12:11:40.047Z,4.47
2019-02-07T12:14:20.375Z,4.87
2019-02-07T12:16:48.918Z,4.40
2019-02-07T12:19:23.275Z,4.63
2019-02-07T12:22:09.003Z,4.30
2019-02-07T12:24:54.137Z,4.53
2019-02-07T12:27:37.938Z,4.43
2019-02-07T12:30:19.269Z,5.30
2019-02-07T12:32:56.743Z,4.17
2019-02-07T12:35:34.088Z,4.20
2019-02-07T12:38:08.453Z,4.77
2019-02-07T12:40:37.163Z,4.40
2019-02-07T12:43:22.693Z,5.70
2019-02-07T12:45:54.296Z,4.33
2019-02-07T12:48:39.300Z,4.40
2019-02-07T12:51:07.802Z,4.23
2019-02-07T12:53:51.396Z,4.50
2019-02-07T12:56:22.715Z,4.23
2019-02-07T12:58:53.758Z,4.73
2019-02-07T13:01:22.258Z,4.43
2019-02-07T13:03:56.372Z,3.97
2019-02-07T13:06:43.238Z,4.53
2019-02-07T13:09:27.289Z,4.80
2019-02-07T13:11:55.870Z,4.00
2019-02-07T13:14:24.683Z,4.53
2019-02-07T13:16:53.197Z,4.33
2019-02-07T13:19:22.582Z,4.20
2019-02-07T13:21:53.677Z,3.77
2019-02-07T13:24:22.263Z,4.33
2019-02-07T13:26:53.764Z,3.93
2019-02-07T13:29:28.229Z,4.13
2019-02-07T13:31:56.750Z,4.33
2019-02-07T13:34:25.488Z,3.70
2019-02-07T13:36:53.802Z,4.30
2019-02-07T13:39:22.294Z,4.10
2019-02-07T13:41:50.876Z,3.30
2019-02-07T13:44:37.519Z,3.83
2019-02-07T13:47:08.877Z,4.30
2019-02-07T13:49:51.930Z,3.50
2019-02-07T13:52:25.616Z,3.07
2019-02-07T13:55:09.362Z,4.03
2019-02-07T13:57:46.725Z,3.80
2019-02-07T14:00:16.019Z,3.40
2019-02-07T14:03:00.965Z,3.67
2019-02-07T14:05:35.054Z,3.50
2019-02-07T14:08:03.520Z,3.63
2019-02-07T14:10:31.936Z,3.43
2019-02-07T14:13:18.504Z,3.63
2019-02-07T14:15:53.109Z,3.80
2019-02-07T14:18:27.282Z,3.80
2019-02-07T14:20:56.302Z,3.20
2019-02-07T14:23:29.827Z,3.53
2019-02-07T14:26:03.975Z,3.23
2019-02-07T14:28:35.579Z,3.60
2019-02-07T14:31:20.477Z,3.33
2019-02-07T14:33:52.089Z,3.70
2019-02-07T14:36:26.574Z,3.20
2019-02-07T14:39:00.717Z,3.17
2019-02-07T14:41:31.812Z,3.40
2019-02-07T14:44:18.508Z,3.13
2019-02-07T14:46:47.808Z,3.47
2019-02-07T14:49:14.498Z,2.87
2019-02-07T14:51:41.149Z,3.37
2019-02-07T14:54:07.687Z,3.27
2019-02-07T14:56:34.202Z,3.33
2019-02-07T17:46:40.020Z,3.07
2019-02-07T17:49:06.759Z,2.93
2019-02-07T17:51:33.264Z,3.47
2019-02-07T17:53:59.817Z,2.77
2019-02-07T17:56:26.452Z,2.90
2019-02-07T17:58:53.214Z,3.23
2019-02-07T18:01:19.854Z,2.53
2019-02-07T18:03:46.612Z,2.83
2019-02-07T18:06:13.668Z,2.33
2019-02-07T18:08:40.373Z,2.97
2019-02-07T18:11:07.063Z,3.00
2019-02-07T18:13:34.339Z,2.33
2019-02-07T18:16:01.123Z,2.83
2019-02-07T18:18:27.888Z,2.70
2019-02-07T18:20:54.593Z,2.70
2019-02-07T18:23:21.140Z,2.47
2019-02-07T18:25:48.033Z,3.00
2019-02-07T18:28:14.697Z,2.73
2019-02-07T18:30:41.419Z,2.63
2019-02-07T18:33:08.178Z,2.80
2019-02-07T18:35:35.062Z,2.60
2019-02-07T19:43:24.094Z,3.07
2019-02-07T19:45:50.908Z,2.80
2019-02-07T19:48:18.694Z,2.40
2019-02-07T19:50:45.526Z,2.33
2019-02-07T19:53:12.213Z,2.60
2019-02-07T19:55:39.015Z,2.50
2019-02-07T19:58:06.671Z,2.27
2019-02-07T20:00:34.035Z,2.23
2019-02-07T20:03:00.987Z,2.30
2019-02-07T20:05:28.235Z,2.40
2019-02-07T20:07:54.964Z,2.33
2019-02-07T20:10:29.125Z,2.30
2019-02-07T20:12:59.531Z,2.67
2019-02-07T20:15:36.456Z,2.00
2019-02-07T20:18:06.285Z,2.17
2019-02-07T20:20:33.089Z,2.30
2019-02-07T20:22:59.738Z,2.30
2019-02-07T20:25:27.214Z,2.33
2019-02-07T20:27:54.405Z,2.50
2019-02-07T20:30:31.370Z,2.23
2019-02-07T20:32:58.350Z,2.43
2019-02-07T20:35:25.358Z,2.60
2019-02-07T20:37:52.062Z,2.40
2019-02-07T20:40:24.566Z,2.23
2019-02-07T20:42:51.369Z,2.60
2019-02-07T20:45:18.958Z,2.60
2019-02-07T20:47:45.944Z,2.07
2019-02-07T20:50:20.333Z,1.93
2019-02-07T20:52:48.433Z,2.20
2019-02-07T20:55:15.331Z,2.43
2019-02-07T20:57:42.116Z,2.20
2019-02-07T21:00:22.658Z,2.20
2019-02-07T21:02:49.589Z,2.20
2019-02-07T21:05:17.620Z,2.07
2019-02-07T21:07:44.407Z,2.27
2019-02-07T21:10:18.309Z,2.13
2019-02-07T21:12:47.045Z,2.40
2019-02-07T21:15:18.872Z,2.50
2019-02-07T21:17:45.861Z,2.47
2019-02-07T21:20:20.234Z,2.33
2019-02-07T21:22:47.775Z,2.20
2019-02-07T21:25:27.978Z,2.47
2019-02-07T21:27:54.470Z,2.00
2019-02-07T21:30:28.152Z,2.20
2019-02-07T21:32:55.047Z,2.00
2019-02-07T21:35:22.475Z,2.20
2019-02-07T21:37:49.563Z,2.27
2019-02-07T21:40:20.120Z,2.33
2019-02-07T21:42:46.785Z,2.17
2019-02-07T21:45:16.507Z,2.07
2019-02-07T21:47:43.414Z,2.40
2019-02-07T21:50:22.566Z,3.00
2019-02-07T21:52:49.425Z,2.20
2019-02-07T21:55:19.221Z,2.97
2019-02-07T21:57:45.880Z,2.90
2019-02-07T22:00:25.858Z,2.50
2019-02-07T22:02:53.675Z,2.30
2019-02-07T22:05:20.306Z,2.73
2019-02-07T22:07:46.889Z,2.23
2019-02-07T22:10:15.760Z,2.67
2019-02-07T22:12:42.981Z,2.20
2019-02-07T22:15:19.915Z,2.60
2019-02-07T22:17:46.921Z,2.47
2019-02-07T22:20:16.731Z,2.27
2019-02-07T22:22:49.122Z,2.50
2019-02-07T22:25:12.465Z,2.43
2019-02-07T22:27:39.075Z,2.70
2019-02-07T22:30:13.706Z,2.30
2019-02-07T22:32:40.371Z,1.90
2019-02-07T22:35:09.397Z,2.33
2019-02-07T22:37:36.070Z,2.60
2019-02-07T22:40:08.125Z,2.20
2019-02-07T22:42:34.660Z,2.97
2019-02-07T22:45:01.277Z,2.57
2019-02-07T22:47:28.008Z,2.33
2019-02-07T22:49:54.429Z,2.23
2019-02-07T22:52:21.267Z,2.20
2019-02-07T22:54:47.883Z,2.20
2019-02-07T22:57:14.432Z,2.27
2019-02-07T22:59:41.045Z,2.87
2019-02-07T23:02:08.542Z,2.53
2019-02-07T23:04:34.988Z,2.43
2019-02-07T23:07:01.607Z,3.00
2019-02-07T23:09:28.232Z,2.60
2019-02-07T23:11:54.910Z,2.60
2019-02-07T23:14:21.680Z,2.20
2019-02-07T23:16:48.310Z,2.50
2019-02-07T23:19:15.015Z,2.60
2019-02-07T23:21:41.709Z,2.50
2019-02-07T23:24:08.437Z,2.27
2019-02-07T23:26:35.248Z,2.80
2019-02-07T23:29:02.015Z,2.43
2019-02-07T23:31:28.685Z,2.60
2019-02-07T23:33:55.209Z,2.40
2019-02-07T23:36:21.745Z,2.63
2019-02-07T23:38:48.291Z,2.70
2019-02-07T23:41:14.905Z,2.20
2019-02-07T23:43:46.217Z,2.50
2019-02-07T23:46:11.198Z,2.37
2019-02-07T23:48:37.927Z,2.27
2019-02-07T23:51:05.102Z,2.60
2019-02-07T23:53:31.847Z,2.33
2019-02-07T23:55:58.128Z,2.63
2019-02-07T23:58:24.809Z,2.47
